createdAt,value
2022-08-07T00:01:01.356Z,55.74
2022-08-07T00:06:33.178Z,56.70
2022-08-07T00:11:35.087Z,56.91
2022-08-07T00:16:49.399Z,56.80
2022-08-07T00:21:56.148Z,56.73
2022-08-07T00:27:07.316Z,56.66
2022-08-07T00:32:10.163Z,58.04
2022-08-07T00:37:15.076Z,58.36
2022-08-07T00:42:16.811Z,59.94
2022-08-07T00:48:08.187Z,60.84
2022-08-07T00:52:39.778Z,59.94
2022-08-07T00:57:55.067Z,59.80
2022-08-07T01:02:57.634Z,58.73
2022-08-07T01:07:59.493Z,58.47
2022-08-07T01:13:00.973Z,58.51
2022-08-07T01:18:04.839Z,58.31
2022-08-07T01:23:12.179Z,58.13
2022-08-07T01:28:14.453Z,58.73
2022-08-07T01:33:15.950Z,59.07
2022-08-07T01:38:25.131Z,60.44
2022-08-07T01:43:27.394Z,60.71
2022-08-07T01:48:41.169Z,61.18
2022-08-07T01:54:11.954Z,61.11
2022-08-07T01:59:04.097Z,61.54
2022-08-07T02:04:05.736Z,59.71
2022-08-07T02:09:11.643Z,59.87
2022-08-07T02:14:35.847Z,59.33
2022-08-07T02:20:04.374Z,61.22
2022-08-07T02:24:59.531Z,64.01
2022-08-07T02:30:03.553Z,63.27
2022-08-07T02:35:09.165Z,61.33
2022-08-07T02:40:31.222Z,61.34
2022-08-07T02:45:58.143Z,60.78
2022-08-07T02:50:53.616Z,59.88
2022-08-07T02:56:04.371Z,60.23
2022-08-07T03:01:18.455Z,60.82
2022-08-07T03:06:25.813Z,61.87
2022-08-07T03:11:38.598Z,62.47
2022-08-07T03:16:44.109Z,62.19
2022-08-07T03:21:50.595Z,60.71
2022-08-07T03:26:59.125Z,59.55
2022-08-07T03:32:01.002Z,59.94
2022-08-07T03:37:12.250Z,60.42
2022-08-07T03:42:14.261Z,61.15
2022-08-07T03:47:15.949Z,61.71
2022-08-07T03:52:26.807Z,62.60
2022-08-07T03:59:04.786Z,62.62
2022-08-07T04:02:50.403Z,63.56
2022-08-07T04:07:58.405Z,63.67
2022-08-07T04:13:01.934Z,64.01
2022-08-07T04:18:57.225Z,63.68
2022-08-07T04:23:25.797Z,63.13
2022-08-07T04:28:45.538Z,63.17
2022-08-07T04:33:47.506Z,62.85
2022-08-07T04:38:56.680Z,62.90
2022-08-07T04:44:12.308Z,64.31
2022-08-07T04:49:24.653Z,64.92
2022-08-07T04:54:30.295Z,63.88
2022-08-07T05:00:09.455Z,61.88
2022-08-07T05:04:53.665Z,61.37
2022-08-07T05:09:55.253Z,60.48
2022-08-07T05:15:04.264Z,60.49
2022-08-07T05:20:09.655Z,59.56
2022-08-07T05:25:11.790Z,60.21
2022-08-07T05:30:32.822Z,60.06
2022-08-07T05:35:41.604Z,58.72
2022-08-07T05:40:50.599Z,58.49
2022-08-07T05:45:57.312Z,58.15
2022-08-07T05:51:00.913Z,56.70
2022-08-07T05:56:05.607Z,55.37
2022-08-07T06:01:10.567Z,56.50
2022-08-07T06:06:12.571Z,54.25
2022-08-07T06:11:24.994Z,51.87
2022-08-07T06:16:29.412Z,52.72
2022-08-07T06:22:15.984Z,49.48
2022-08-07T06:26:52.034Z,49.30
2022-08-07T06:31:53.298Z,49.51
2022-08-07T06:36:54.566Z,49.30
2022-08-07T06:42:01.854Z,49.40
2022-08-07T06:47:12.400Z,47.96
2022-08-07T06:52:16.758Z,47.40
2022-08-07T06:57:39.833Z,46.82
2022-08-07T07:02:57.269Z,48.16
2022-08-07T07:08:06.316Z,47.80
2022-08-07T07:13:08.365Z,47.14
2022-08-07T07:18:11.323Z,46.32
2022-08-07T07:24:09.775Z,48.30
2022-08-07T07:28:48.417Z,47.37
2022-08-07T07:33:57.067Z,47.86
2022-08-07T07:38:58.627Z,46.10
2022-08-07T07:44:17.304Z,46.59
2022-08-07T07:50:34.755Z,49.47
2022-08-07T07:54:50.724Z,47.10
2022-08-07T07:59:53.917Z,42.78
2022-08-07T08:04:55.494Z,41.55
2022-08-07T08:10:05.330Z,41.51
2022-08-07T08:15:07.205Z,40.19
2022-08-07T08:20:18.463Z,42.53
2022-08-07T08:25:49.250Z,40.91
2022-08-07T08:30:55.786Z,41.65
2022-08-07T08:35:57.194Z,38.18
2022-08-07T08:40:58.584Z,39.33
2022-08-07T08:46:00.791Z,37.74
2022-08-07T08:51:03.444Z,38.73
2022-08-07T08:56:17.315Z,38.52
2022-08-07T09:01:19.481Z,38.61
2022-08-07T09:06:21.254Z,38.89
2022-08-07T09:11:24.771Z,37.71
2022-08-07T09:16:43.962Z,34.97
2022-08-07T09:22:09.849Z,34.61
2022-08-07T09:27:11.897Z,37.21
2022-08-07T09:32:18.704Z,36.86
2022-08-07T09:37:20.328Z,36.35
2022-08-07T09:42:35.424Z,36.23
2022-08-07T09:47:56.094Z,34.33
2022-08-07T09:52:58.535Z,34.46
2022-08-07T09:58:02.086Z,33.00
2022-08-07T10:03:07.786Z,33.88
2022-08-07T10:08:09.535Z,33.25
2022-08-07T10:13:29.764Z,33.89
2022-08-07T10:18:32.208Z,33.71
2022-08-07T10:24:05.082Z,30.84
2022-08-07T10:28:59.473Z,29.26
2022-08-07T10:34:15.609Z,31.22
2022-08-07T10:39:19.725Z,32.58
2022-08-07T10:44:28.366Z,33.01
2022-08-07T10:49:49.659Z,32.11
2022-08-07T10:55:00.872Z,31.69
2022-08-07T11:00:03.915Z,31.59
2022-08-07T11:05:10.489Z,32.20
2022-08-07T11:10:12.247Z,30.19
2022-08-07T11:15:17.682Z,32.43
2022-08-07T11:20:19.144Z,32.05
2022-08-07T11:25:23.909Z,29.74
2022-08-07T11:30:39.148Z,29.34
2022-08-07T11:35:59.504Z,27.85
2022-08-07T11:41:02.234Z,29.65
2022-08-07T11:46:04.677Z,30.47
2022-08-07T11:51:09.634Z,31.37
2022-08-07T11:56:26.752Z,29.98
2022-08-07T12:01:59.997Z,29.21
2022-08-07T12:07:07.935Z,28.91
2022-08-07T12:12:11.997Z,27.50
2022-08-07T12:17:25.928Z,30.57
2022-08-07T12:22:39.215Z,29.27
2022-08-07T12:28:08.496Z,29.99
2022-08-07T12:33:18.735Z,29.98
2022-08-07T12:38:36.948Z,28.98
2022-08-07T12:44:02.159Z,27.27
2022-08-07T12:49:10.004Z,24.61
2022-08-07T12:54:38.606Z,26.72
2022-08-07T12:59:54.712Z,26.41
2022-08-07T13:05:01.609Z,25.72
2022-08-07T13:10:28.873Z,23.41
2022-08-07T13:15:31.998Z,24.27
2022-08-07T13:20:33.728Z,25.83
2022-08-07T13:25:37.291Z,26.34
2022-08-07T13:30:44.155Z,26.17
2022-08-07T13:36:01.026Z,25.65
2022-08-07T13:41:06.494Z,25.27
2022-08-07T13:46:20.949Z,24.91
2022-08-07T13:51:28.574Z,25.09
2022-08-07T13:56:52.173Z,24.14
2022-08-07T14:02:04.802Z,22.68
2022-08-07T14:07:09.228Z,23.42
2022-08-07T14:12:11.127Z,24.57
2022-08-07T14:18:12.801Z,24.69
2022-08-07T14:22:37.954Z,23.86
2022-08-07T14:28:10.332Z,24.52
2022-08-07T14:33:01.722Z,24.25
2022-08-07T14:38:06.241Z,23.40
2022-08-07T14:43:58.984Z,24.43
2022-08-07T14:48:31.563Z,24.01
2022-08-07T14:58:56.283Z,23.27
2022-08-07T15:04:01.208Z,24.69
2022-08-07T15:09:57.559Z,24.35
2022-08-07T15:14:30.404Z,24.67
2022-08-07T15:20:31.053Z,24.16
2022-08-07T15:25:13.161Z,22.91
2022-08-07T15:30:14.738Z,25.09
2022-08-07T15:35:17.457Z,25.39
2022-08-07T15:40:34.585Z,25.25
2022-08-07T15:45:56.400Z,24.98
2022-08-07T15:51:08.574Z,27.57
2022-08-07T15:56:13.177Z,27.10
2022-08-07T16:01:14.550Z,27.17
2022-08-07T16:06:21.563Z,27.83
2022-08-07T16:11:28.768Z,28.77
2022-08-07T16:16:48.944Z,28.10
2022-08-07T16:22:05.607Z,27.65
2022-08-07T16:27:18.024Z,28.21
2022-08-07T16:32:32.888Z,29.40
2022-08-07T16:38:04.118Z,28.83
2022-08-07T16:42:56.044Z,29.68
2022-08-07T16:47:57.353Z,29.54
2022-08-07T16:53:14.967Z,28.97
2022-08-07T16:58:19.883Z,28.31
2022-08-07T17:03:58.219Z,29.56
2022-08-07T17:09:09.339Z,29.49
2022-08-07T17:14:18.081Z,30.49
2022-08-07T17:20:00.866Z,29.67
2022-08-07T17:24:42.643Z,30.75
2022-08-07T17:30:15.930Z,30.68
2022-08-07T17:35:51.077Z,30.07
2022-08-07T17:40:30.393Z,31.62
2022-08-07T17:45:35.019Z,30.47
2022-08-07T17:50:42.534Z,30.51
2022-08-07T17:55:55.702Z,31.05
2022-08-07T18:01:20.644Z,30.80
2022-08-07T18:06:38.318Z,30.62
2022-08-07T18:12:11.958Z,31.18
2022-08-07T18:17:01.509Z,31.30
2022-08-07T18:22:11.314Z,32.50
2022-08-07T18:27:18.148Z,32.62
2022-08-07T18:32:22.761Z,32.10
2022-08-07T18:38:59.651Z,32.45
2022-08-07T18:42:45.885Z,32.31
2022-08-07T18:48:00.776Z,32.13
2022-08-07T18:53:05.814Z,33.03
2022-08-07T18:58:09.843Z,33.54
2022-08-07T19:03:16.314Z,34.00
2022-08-07T19:08:17.931Z,33.84
2022-08-07T19:13:21.588Z,33.40
2022-08-07T19:18:34.586Z,33.87
2022-08-07T19:23:59.162Z,34.73
2022-08-07T19:31:01.227Z,35.24
2022-08-07T19:34:34.001Z,33.82
2022-08-07T19:39:56.421Z,34.00
2022-08-07T19:45:00.685Z,35.38
2022-08-07T19:50:41.062Z,36.08
2022-08-07T19:55:57.452Z,37.46
2022-08-07T20:00:59.007Z,37.31
2022-08-07T20:06:04.395Z,38.55
2022-08-07T20:11:09.860Z,38.55
2022-08-07T20:16:15.766Z,38.93
2022-08-07T20:21:46.932Z,38.77
2022-08-07T20:26:52.326Z,38.96
2022-08-07T20:31:56.190Z,38.83
2022-08-07T20:36:57.555Z,38.94
2022-08-07T20:41:59.450Z,40.65
2022-08-07T20:47:05.775Z,40.68
2022-08-07T20:52:16.747Z,40.65
2022-08-07T20:57:20.275Z,41.24
2022-08-07T21:02:41.329Z,40.97
2022-08-07T21:07:57.629Z,42.00
2022-08-07T21:12:59.930Z,43.67
2022-08-07T21:18:17.244Z,43.00
2022-08-07T21:23:26.392Z,44.45
2022-08-07T21:28:49.873Z,44.36
2022-08-07T21:33:52.040Z,43.82
2022-08-07T21:38:55.522Z,42.63
2022-08-07T21:43:59.003Z,43.40
2022-08-07T21:49:02.903Z,43.86
2022-08-07T21:54:06.096Z,45.68
2022-08-07T21:59:07.378Z,44.90
2022-08-07T22:04:09.258Z,44.82
2022-08-07T22:09:12.446Z,45.42
2022-08-07T22:14:15.199Z,46.11
2022-08-07T22:19:29.998Z,44.81
2022-08-07T22:24:32.833Z,45.43
2022-08-07T22:29:47.351Z,47.27
2022-08-07T22:34:53.494Z,47.60
2022-08-07T22:39:55.043Z,47.84
2022-08-07T22:44:58.744Z,47.54
2022-08-07T22:50:00.585Z,49.14
2022-08-07T22:55:14.841Z,49.90
2022-08-07T23:00:28.385Z,49.61
2022-08-07T23:06:07.514Z,48.37
2022-08-07T23:10:51.364Z,49.82
2022-08-07T23:16:06.007Z,49.46
2022-08-07T23:21:09.923Z,48.44
2022-08-07T23:26:11.824Z,48.26
2022-08-07T23:31:18.599Z,47.63
2022-08-07T23:36:35.838Z,47.08
2022-08-07T23:41:47.574Z,47.98
2022-08-07T23:46:58.455Z,47.99
2022-08-07T23:53:05.491Z,48.32
2022-08-07T23:57:22.202Z,49.32
